Time;durP1;ratioP1;P1;durP2;ratioP2;P2;SDS_P1;SDS_P2;PMS_P1;PMS_P2;Temp;Humidity;BMP_temperature;BMP_pressure;BME280_temperature;BME280_humidity;BME280_pressure;Samples;Min_cycle;Max_cycle;Signal;HPM_P1;HPM_P2
2023/10/05 00:01:56;;;;;;;1.75;0.90;;;;;;;15.05;83.93;102390.88;4976462;28;96810;-27
2023/10/05 00:04:24;;;;;;;3.95;0.88;;;;;;;15.05;84.24;102396.34;4976222;28;98132;-29
2023/10/05 00:06:53;;;;;;;4.35;1.00;;;;;;;15.00;83.74;102383.91;4974641;28;100967;-28
2023/10/05 00:09:19;;;;;;;6.82;0.82;;;;;;;15.00;83.89;102376.59;4976301;28;96508;-28
2023/10/05 00:11:45;;;;;;;3.53;0.98;;;;;;;15.08;84.02;102387.09;4976244;28;96738;-28
2023/10/05 00:14:12;;;;;;;5.60;1.00;;;;;;;15.03;84.07;102375.56;4975736;28;97999;-28
2023/10/05 00:16:38;;;;;;;2.58;0.70;;;;;;;15.01;84.29;102388.41;4973950;28;99214;-28
2023/10/05 00:19:15;;;;;;;0.90;0.40;;;;;;;15.02;83.92;102385.59;4976126;28;96538;-28
2023/10/05 00:21:51;;;;;;;2.97;0.85;;;;;;;15.07;83.85;102399.00;4974777;28;96922;-28
2023/10/05 00:24:26;;;;;;;3.17;0.68;;;;;;;15.06;83.96;102397.22;4973928;28;100790;-28
2023/10/05 00:26:51;;;;;;;4.20;0.57;;;;;;;15.05;83.81;102390.88;4975688;28;99494;-28
2023/10/05 00:29:39;;;;;;;2.15;0.70;;;;;;;15.05;83.83;102399.06;4976168;28;96653;-28
2023/10/05 00:32:08;;;;;;;2.58;0.60;;;;;;;15.04;84.00;102396.41;4974720;28;96732;-28
2023/10/05 00:34:33;;;;;;;1.73;0.50;;;;;;;15.03;83.94;102381.88;4975674;28;97994;-28
2023/10/05 00:37:03;;;;;;;3.53;0.70;;;;;;;15.07;83.73;102385.34;4975796;28;97869;-28
2023/10/05 00:39:31;;;;;;;3.72;0.60;;;;;;;15.02;83.23;102385.59;4975423;28;96605;-29
2023/10/05 00:44:30;;;;;;;2.30;0.70;;;;;;;15.13;82.95;102393.16;4973654;28;97498;-28
2023/10/05 00:46:59;;;;;;;3.83;0.90;;;;;;;15.14;83.20;102389.50;4975478;28;97878;-29
2023/10/05 00:49:29;;;;;;;9.27;1.17;;;;;;;15.15;83.27;102396.69;4973912;28;96569;-28
2023/10/05 00:52:11;;;;;;;2.33;0.50;;;;;;;15.14;83.27;102402.25;4975477;28;96940;-28
2023/10/05 00:54:40;;;;;;;1.98;0.77;;;;;;;15.15;83.08;102393.09;4973967;28;101025;-28
2023/10/05 00:57:09;;;;;;;2.05;0.60;;;;;;;15.11;83.49;102391.50;4975288;28;99332;-28
2023/10/05 00:59:36;;;;;;;1.70;0.65;;;;;;;15.10;83.12;102384.28;4974208;28;96623;-28
2023/10/05 01:02:14;;;;;;;1.98;0.57;;;;;;;15.12;83.28;102387.81;4974300;28;96833;-28
2023/10/05 01:12:47;;;;;;;1.85;0.70;;;;;;;15.04;83.46;102375.47;4952208;28;96899;-28
2023/10/05 01:15:19;;;;;;;1.30;0.50;;;;;;;15.13;83.44;102389.56;4973282;28;100912;-28
2023/10/05 01:17:45;;;;;;;2.40;0.63;;;;;;;15.12;83.13;102376.91;4975158;28;97977;-28
2023/10/05 01:22:44;;;;;;;4.25;0.73;;;;;;;15.15;83.44;102374.84;4974476;28;96590;-29
2023/10/05 01:25:14;;;;;;;1.80;0.77;;;;;;;15.16;82.78;102364.81;4974710;28;99379;-28
2023/10/05 01:27:47;;;;;;;3.83;0.45;;;;;;;15.18;82.84;102368.34;4974242;28;98381;-28
2023/10/05 01:30:13;;;;;;;3.88;0.85;;;;;;;15.16;82.80;102363.00;4974011;28;96573;-28
2023/10/05 01:32:42;;;;;;;3.50;0.75;;;;;;;15.16;82.87;102359.34;4974231;28;96855;-29
2023/10/05 01:35:13;;;;;;;1.70;0.60;;;;;;;15.14;83.02;102362.19;4973488;28;100981;-28
2023/10/05 01:37:46;;;;;;;2.45;0.82;;;;;;;15.19;83.30;102378.31;4973433;28;99641;-28
2023/10/05 01:40:20;;;;;;;1.27;0.50;;;;;;;15.15;83.09;102374.84;4974364;28;96654;-28
2023/10/05 01:42:51;;;;;;;6.60;0.82;;;;;;;15.13;83.29;102374.06;4973516;28;96813;-28
2023/10/05 01:45:21;;;;;;;5.53;1.05;;;;;;;15.19;83.25;102381.91;4973013;28;100984;-28
2023/10/05 01:47:46;;;;;;;4.88;0.70;;;;;;;15.20;83.61;102382.78;4974503;28;99437;-28
2023/10/05 01:50:19;;;;;;;3.67;0.70;;;;;;;15.18;83.52;102380.16;4975063;28;96509;-29
2023/10/05 01:52:49;;;;;;;3.97;0.77;;;;;;;15.15;83.18;102377.59;4974833;28;96785;-28
2023/10/05 01:55:14;;;;;;;1.30;0.82;;;;;;;15.17;83.89;102378.38;4974600;28;97974;-28
2023/10/05 01:57:44;;;;;;;1.55;0.60;;;;;;;15.18;83.33;102384.72;4973467;28;100897;-28
2023/10/05 02:00:14;;;;;;;1.83;0.63;;;;;;;15.14;83.32;102373.13;4973446;28;96594;-28
2023/10/05 02:02:42;;;;;;;2.72;0.65;;;;;;;15.21;83.27;102376.38;4973591;28;96619;-29
2023/10/05 02:05:09;;;;;;;3.50;1.13;;;;;;;15.18;83.25;102384.72;4972501;28;100982;-28
2023/10/05 02:07:36;;;;;;;2.42;0.65;;;;;;;15.10;83.99;102371.50;4973093;28;101412;-28
2023/10/05 02:10:09;;;;;;;1.40;0.60;;;;;;;15.08;83.90;102378.91;4974826;28;96623;-28
2023/10/05 02:12:35;;;;;;;6.10;1.00;;;;;;;15.05;84.06;102368.16;4973310;28;96728;-28
2023/10/05 02:15:01;;;;;;;1.30;0.60;;;;;;;15.03;84.07;102375.56;4974230;28;99298;-28
2023/10/05 02:17:27;;;;;;;3.30;0.70;;;;;;;15.01;84.47;102370.16;4974131;28;99241;-28
2023/10/05 02:19:52;;;;;;;2.28;0.35;;;;;;;14.93;84.19;102366.13;4974624;28;96513;-29
2023/10/05 02:22:22;;;;;;;2.42;0.85;;;;;;;14.94;84.47;102365.16;4974794;28;96868;-28
2023/10/05 02:24:51;;;;;;;1.95;0.60;;;;;;;14.93;84.25;102355.22;4972787;28;101296;-28
2023/10/05 02:27:17;;;;;;;4.45;0.68;;;;;;;14.97;84.23;102368.59;4972782;28;99068;-28
2023/10/05 02:29:43;;;;;;;4.35;0.75;;;;;;;14.98;83.89;102364.91;4973813;28;96675;-28
2023/10/05 02:32:10;;;;;;;5.90;0.65;;;;;;;14.94;83.98;102355.09;4974335;28;96789;-28
2023/10/05 02:34:44;;;;;;;2.63;0.75;;;;;;;14.93;84.16;102352.47;4972648;28;101448;-28
2023/10/05 02:37:13;;;;;;;2.25;0.77;;;;;;;14.90;84.56;102353.53;4972752;28;100910;-28
2023/10/05 02:39:40;;;;;;;3.65;0.80;;;;;;;14.92;84.36;102358.88;4975370;28;96629;-28
2023/10/05 02:42:12;;;;;;;5.07;1.10;;;;;;;14.92;84.63;102365.25;4976203;28;96880;-28
2023/10/05 02:44:38;;;;;;;1.40;0.55;;;;;;;14.84;84.44;102357.47;4975421;28;100936;-29
2023/10/05 02:47:10;;;;;;;2.70;0.77;;;;;;;14.86;84.50;102360.13;4976213;28;101055;-28
2023/10/05 02:49:43;;;;;;;2.70;0.85;;;;;;;14.84;85.17;102360.19;4976267;28;96642;-28
2023/10/05 02:52:13;;;;;;;1.45;0.70;;;;;;;14.86;84.98;102358.28;4977505;28;96652;-28
2023/10/05 02:54:39;;;;;;;2.60;0.65;;;;;;;14.86;84.52;102355.53;4975318;28;100914;-28
2023/10/05 02:57:10;;;;;;;1.23;0.55;;;;;;;14.90;84.58;102355.38;4975568;28;100950;-28
2023/10/05 02:59:36;;;;;;;1.17;0.52;;;;;;;14.89;84.68;102346.31;4977374;28;96610;-28
2023/10/05 03:02:07;;;;;;;1.90;0.57;;;;;;;14.86;84.44;102361.00;4977381;28;96956;-28
2023/10/05 03:04:45;;;;;;;0.73;0.40;;;;;;;14.84;84.84;102346.56;4975806;28;101394;-28
2023/10/05 03:07:17;;;;;;;6.25;0.90;;;;;;;14.84;84.80;102353.88;4975809;28;101108;-28
2023/10/05 03:09:48;;;;;;;1.13;0.75;;;;;;;14.86;84.92;102358.28;4977228;28;96809;-28
2023/10/05 03:12:14;;;;;;;4.20;0.98;;;;;;;14.83;84.90;102353.00;4977907;28;96785;-28
2023/10/05 03:14:43;;;;;;;2.05;0.75;;;;;;;14.86;85.36;102363.72;4976792;28;99716;-28
2023/10/05 03:17:12;;;;;;;1.48;0.85;;;;;;;14.85;85.08;102359.25;4975522;28;100951;-28
2023/10/05 03:19:37;;;;;;;3.35;1.02;;;;;;;14.84;84.96;102356.59;4975192;28;96645;-28
2023/10/05 03:22:07;;;;;;;3.67;0.70;;;;;;;14.82;85.16;102356.66;4975711;28;96891;-28
2023/10/05 03:24:35;;;;;;;1.75;0.85;;;;;;;14.75;85.09;102344.34;4975386;28;101889;-28
2023/10/05 03:27:05;;;;;;;2.58;0.80;;;;;;;14.76;85.74;102359.75;4976681;28;97825;-28
2023/10/05 03:29:35;;;;;;;3.50;0.57;;;;;;;14.78;85.83;102359.69;4975546;28;96667;-28
2023/10/05 03:34:32;;;;;;;1.48;0.88;;;;;;;14.72;85.73;102355.44;4976125;28;98376;-29
2023/10/05 03:37:04;;;;;;;2.88;0.82;;;;;;;14.72;85.78;102355.44;4976964;28;97701;-28
2023/10/05 03:39:33;;;;;;;3.80;0.70;;;;;;;14.72;85.71;102354.56;4975421;28;96734;-28
2023/10/05 03:41:59;;;;;;;1.38;0.75;;;;;;;14.73;85.79;102353.56;4975051;28;96822;-28
2023/10/05 03:44:25;;;;;;;6.25;0.68;;;;;;;14.71;85.67;102350.06;4975324;28;97924;-28
2023/10/05 03:46:51;;;;;;;1.45;0.55;;;;;;;14.72;85.78;102344.50;4976225;28;99436;-28
2023/10/05 03:49:21;;;;;;;2.67;1.02;;;;;;;14.72;85.76;102351.81;4974697;28;96653;-28
2023/10/05 03:51:50;;;;;;;3.60;0.80;;;;;;;14.69;85.99;102358.31;4975119;28;96838;-28
2023/10/05 03:54:21;;;;;;;1.42;0.68;;;;;;;14.58;86.17;102341.66;4974844;28;100874;-28
2023/10/05 03:56:50;;;;;;;2.88;0.60;;;;;;;14.63;86.09;102354.09;4976287;28;99593;-28
2023/10/05 03:59:16;;;;;;;1.85;0.70;;;;;;;14.63;86.32;102355.91;4975076;28;96706;-28
2023/10/05 04:01:41;;;;;;;1.13;0.70;;;;;;;14.60;86.45;102342.47;4976721;28;96786;-28
2023/10/05 04:04:08;;;;;;;3.08;0.82;;;;;;;14.63;86.00;102350.47;4974713;28;99581;-28
2023/10/05 04:06:36;;;;;;;2.00;0.57;;;;;;;14.54;86.37;102349.16;4974706;28;101348;-28
2023/10/05 04:09:03;;;;;;;2.03;0.73;;;;;;;14.63;86.26;102355.91;4974598;28;96778;-28
2023/10/05 04:11:33;;;;;;;2.08;0.63;;;;;;;14.59;86.06;102343.44;4974969;28;96844;-29
2023/10/05 04:14:01;;;;;;;2.75;1.02;;;;;;;14.60;86.31;102345.19;4974544;28;101077;-28
2023/10/05 04:16:28;;;;;;;4.53;0.77;;;;;;;14.58;85.74;102341.66;4975667;28;99669;-28
2023/10/05 04:18:54;;;;;;;2.72;0.85;;;;;;;14.56;86.27;102333.59;4974850;28;96627;-28
2023/10/05 04:21:23;;;;;;;5.35;1.00;;;;;;;14.57;86.19;102343.50;4974751;28;96864;-28
2023/10/05 04:23:52;;;;;;;1.55;0.60;;;;;;;14.59;86.36;102349.78;4975954;28;97457;-28
2023/10/05 04:26:22;;;;;;;2.38;0.77;;;;;;;14.56;85.99;102344.50;4976090;28;97855;-28
2023/10/05 04:28:54;;;;;;;3.50;0.90;;;;;;;14.56;86.16;102346.31;4974600;28;96693;-28
2023/10/05 04:31:27;;;;;;;0.98;0.52;;;;;;;14.56;86.43;102349.94;4974744;28;97149;-28
2023/10/05 04:33:54;;;;;;;2.08;0.80;;;;;;;14.53;86.59;102346.44;4975458;28;97996;-28
2023/10/05 04:36:22;;;;;;;2.05;1.05;;;;;;;14.54;86.50;102345.50;4974141;28;101184;-28
2023/10/05 04:38:48;;;;;;;2.00;0.65;;;;;;;14.51;86.66;102348.38;4974540;28;96639;-29
2023/10/05 04:41:13;;;;;;;2.72;0.82;;;;;;;14.53;86.27;102350.06;4974183;28;96906;-28
2023/10/05 04:43:43;;;;;;;2.60;1.00;;;;;;;14.49;86.32;102345.75;4974605;28;99291;-28
2023/10/05 04:46:09;;;;;;;3.90;0.82;;;;;;;14.48;86.55;102346.69;4975362;28;99391;-29
2023/10/05 04:48:39;;;;;;;1.58;0.82;;;;;;;14.43;86.42;102343.34;4975900;28;96573;-28
2023/10/05 04:51:07;;;;;;;3.97;0.73;;;;;;;14.39;86.55;102339.88;4974746;28;97031;-28
2023/10/05 04:53:36;;;;;;;2.70;0.68;;;;;;;14.40;86.53;102358.03;4975434;28;97952;-28
2023/10/05 04:56:12;;;;;;;7.75;1.02;;;;;;;14.41;86.47;102348.88;4973848;28;100802;-28
2023/10/05 04:58:53;;;;;;;1.50;0.80;;;;;;;14.41;86.39;102345.28;4975205;28;96677;-28
2023/10/05 05:01:29;;;;;;;4.30;0.57;;;;;;;14.40;86.49;102355.31;4973487;28;96953;-28
2023/10/05 05:04:13;;;;;;;1.45;0.63;;;;;;;14.37;86.63;102355.47;4975244;28;99359;-28
2023/10/05 05:06:41;;;;;;;2.13;0.77;;;;;;;14.37;86.49;102360.94;4975142;28;99330;-28
2023/10/05 05:09:11;;;;;;;1.85;0.60;;;;;;;14.40;86.65;102374.38;4974047;28;96666;-28
2023/10/05 05:11:37;;;;;;;4.70;0.63;;;;;;;14.38;86.65;102367.25;4974200;28;96808;-28
2023/10/05 05:14:03;;;;;;;2.58;0.68;;;;;;;14.37;86.73;102366.38;4975323;28;97447;-28
2023/10/05 05:16:29;;;;;;;3.67;0.77;;;;;;;14.33;86.68;102363.91;4975615;28;97863;-28
2023/10/05 05:18:55;;;;;;;2.53;0.88;;;;;;;14.26;86.67;102359.72;4975019;28;96590;-29
2023/10/05 05:21:20;;;;;;;0.90;0.40;;;;;;;14.27;86.84;102359.63;4975413;28;96793;-28
2023/10/05 05:23:47;;;;;;;1.17;0.40;;;;;;;14.24;86.77;102360.66;4974540;28;97614;-28
2023/10/05 05:26:12;;;;;;;6.13;0.82;;;;;;;14.27;87.00;102369.66;4973562;28;101733;-28
2023/10/05 05:28:38;;;;;;;2.58;1.30;;;;;;;14.20;86.95;102364.50;4974227;28;96634;-28
2023/10/05 05:31:06;;;;;;;5.35;1.10;;;;;;;14.24;86.82;102374.31;4975111;28;96805;-28
2023/10/05 05:33:32;;;;;;;2.20;0.77;;;;;;;14.24;87.26;102370.69;4974402;28;98601;-28
2023/10/05 05:35:58;;;;;;;1.92;0.75;;;;;;;14.21;87.09;102365.41;4972654;28;97837;-29
2023/10/05 05:38:23;;;;;;;1.05;0.57;;;;;;;14.24;86.77;102363.41;4972658;28;96618;-30
2023/10/05 05:40:49;;;;;;;3.92;0.95;;;;;;;14.24;87.30;102373.44;4974044;28;96893;-28
2023/10/05 05:43:14;;;;;;;1.83;0.85;;;;;;;14.30;87.35;102375.84;4972066;28;100931;-28
2023/10/05 05:45:43;;;;;;;1.95;0.60;;;;;;;14.33;87.41;102377.53;4974046;28;97862;-28
2023/10/05 05:48:15;;;;;;;2.50;0.77;;;;;;;14.33;86.57;102381.13;4972380;28;97199;-29
2023/10/05 05:50:42;;;;;;;3.63;1.13;;;;;;;14.34;87.05;102382.88;4974379;28;96703;-30
2023/10/05 05:53:11;;;;;;;3.88;0.77;;;;;;;14.33;86.91;102374.81;4973243;28;101053;-28
2023/10/05 05:55:41;;;;;;;3.25;0.98;;;;;;;14.33;86.68;102386.56;4955476;28;101078;-30
2023/10/05 05:58:07;;;;;;;3.40;0.85;;;;;;;14.33;87.05;102394.75;4972345;28;97004;-29
2023/10/05 06:00:32;;;;;;;1.60;0.80;;;;;;;14.32;87.11;102383.91;4971036;28;96778;-29
2023/10/05 06:02:58;;;;;;;5.28;1.10;;;;;;;14.34;86.84;102385.59;4972339;28;98004;-29
2023/10/05 06:05:25;;;;;;;2.63;0.93;;;;;;;14.34;87.05;102387.44;4970941;28;101214;-29
2023/10/05 06:07:50;;;;;;;1.77;0.93;;;;;;;14.31;86.91;102379.44;4972551;28;97158;-28
2023/10/05 06:10:16;;;;;;;2.60;0.90;;;;;;;14.34;86.87;102380.16;4973328;28;96990;-30
2023/10/05 06:12:51;;;;;;;3.72;1.05;;;;;;;14.35;87.23;102383.75;4975121;28;97929;-28
2023/10/05 06:15:16;;;;;;;2.97;0.73;;;;;;;14.34;87.61;102382.88;4977753;28;99913;-28
2023/10/05 06:17:46;;;;;;;3.08;1.10;;;;;;;14.33;87.65;102380.25;4978155;28;96658;-28
2023/10/05 06:20:15;;;;;;;5.25;1.02;;;;;;;14.37;87.15;102396.38;4977926;28;96739;-28
2023/10/05 06:22:45;;;;;;;4.35;1.02;;;;;;;14.40;87.37;102400.78;4977595;28;99145;-28
2023/10/05 06:25:18;;;;;;;0.90;0.52;;;;;;;14.37;87.09;102380.00;4976341;28;101095;-28
2023/10/05 06:27:44;;;;;;;3.53;0.95;;;;;;;14.41;87.43;102394.34;4978089;28;96703;-28
2023/10/05 06:30:14;;;;;;;3.80;1.17;;;;;;;14.40;87.13;102395.31;4976851;28;96948;-28
2023/10/05 06:32:40;;;;;;;4.88;1.08;;;;;;;14.42;86.88;102405.19;4976079;28;100888;-28
2023/10/05 06:35:09;;;;;;;4.07;1.20;;;;;;;14.41;87.52;102413.44;4977552;28;97182;-28
2023/10/05 06:37:39;;;;;;;3.35;0.90;;;;;;;14.44;87.13;102416.88;4975956;28;96700;-28
2023/10/05 06:40:14;;;;;;;2.42;0.90;;;;;;;14.48;86.92;102419.44;4977526;28;96904;-29
2023/10/05 06:42:43;;;;;;;2.58;0.90;;;;;;;14.48;87.29;102425.78;4977106;28;100039;-28
2023/10/05 06:45:11;;;;;;;2.78;1.02;;;;;;;14.50;87.22;102420.25;4975336;28;99093;-28
2023/10/05 06:47:37;;;;;;;5.03;0.88;;;;;;;14.47;87.22;102404.94;4977557;28;96640;-28
2023/10/05 06:50:10;;;;;;;2.70;1.02;;;;;;;14.50;87.27;102420.25;4976362;28;96833;-28
2023/10/05 06:52:48;;;;;;;1.90;0.80;;;;;;;14.57;87.15;102432.63;4977433;28;97981;-29
2023/10/05 06:55:18;;;;;;;4.63;0.68;;;;;;;14.55;86.89;102423.66;4977656;28;99235;-28
2023/10/05 06:57:44;;;;;;;2.00;0.82;;;;;;;14.59;87.15;102437.03;4977423;28;96513;-27
2023/10/05 07:00:20;;;;;;;2.10;1.02;;;;;;;14.63;87.01;102443.19;4976036;28;97001;-27
2023/10/05 07:02:50;;;;;;;3.08;0.82;;;;;;;14.67;87.15;102441.19;4976997;28;98053;-27
2023/10/05 07:05:16;;;;;;;2.40;0.80;;;;;;;14.65;86.97;102441.28;4975599;28;101828;-28
2023/10/05 07:07:42;;;;;;;6.75;0.80;;;;;;;14.69;86.95;102447.47;4976084;28;96763;-29
2023/10/05 07:10:10;;;;;;;2.20;0.80;;;;;;;14.71;87.06;102451.88;4977393;28;96832;-27
2023/10/05 07:12:46;;;;;;;2.20;0.77;;;;;;;14.74;86.70;102468.06;4987109;28;99410;-28
2023/10/05 07:15:13;;;;;;;1.70;0.57;;;;;;;14.78;86.96;102469.69;4997100;28;97920;-28
2023/10/05 07:17:39;;;;;;;2.20;0.80;;;;;;;14.75;86.59;102467.09;4995778;28;96637;-29
2023/10/05 07:20:11;;;;;;;3.75;0.90;;;;;;;14.78;86.45;102471.53;4995984;28;96897;-28
2023/10/05 07:22:36;;;;;;;1.73;0.85;;;;;;;14.82;86.73;102476.72;4995641;28;100842;-28
2023/10/05 07:25:04;;;;;;;6.20;1.27;;;;;;;14.77;86.85;102467.88;4996104;28;97331;-28
2023/10/05 07:27:29;;;;;;;1.42;0.60;;;;;;;14.84;87.01;102480.25;4995147;28;96641;-28
2023/10/05 07:29:55;;;;;;;4.30;0.82;;;;;;;14.84;86.33;102457.53;4997106;28;96794;-28
2023/10/05 07:32:20;;;;;;;2.13;0.75;;;;;;;14.80;86.79;102466.84;4996528;28;97912;-29
2023/10/05 07:34:45;;;;;;;2.50;0.77;;;;;;;14.91;86.35;102475.34;4996485;28;99072;-28
2023/10/05 07:37:11;;;;;;;2.42;0.93;;;;;;;14.90;86.48;102469.97;4996660;28;96517;-28
2023/10/05 07:39:41;;;;;;;1.98;0.73;;;;;;;14.91;86.68;102466.28;4996969;28;96791;-28
2023/10/05 07:42:08;;;;;;;2.42;1.00;;;;;;;14.92;86.77;102476.22;4996136;28;98010;-29
2023/10/05 07:44:36;;;;;;;1.60;0.65;;;;;;;14.94;86.57;102468.84;4994352;28;98803;-28
2023/10/05 07:47:02;;;;;;;2.70;0.65;;;;;;;15.00;86.07;102479.44;4995282;28;96628;-28
2023/10/05 07:49:27;;;;;;;2.78;0.60;;;;;;;15.06;86.36;102484.53;4995311;28;96846;-28
2023/10/05 07:51:53;;;;;;;3.38;1.17;;;;;;;15.06;86.30;102477.25;4995656;28;98952;-28
2023/10/05 07:54:18;;;;;;;2.83;1.00;;;;;;;15.13;86.06;102491.44;4993488;28;98835;-28
2023/10/05 07:56:45;;;;;;;1.27;0.55;;;;;;;15.17;85.93;102489.44;4994952;28;96781;-28
2023/10/05 07:59:13;;;;;;;4.65;0.80;;;;;;;15.31;85.96;102489.56;4996295;28;96842;-28
2023/10/05 08:01:39;;;;;;;4.40;1.02;;;;;;;15.43;85.25;102490.72;4994732;28;100994;-28
2023/10/05 08:04:04;;;;;;;3.08;0.95;;;;;;;15.62;84.50;102502.38;4996374;28;97372;-29
2023/10/05 08:06:30;;;;;;;1.75;0.73;;;;;;;15.74;83.89;102499.97;4996122;28;96672;-28
2023/10/05 08:08:55;;;;;;;2.15;0.57;;;;;;;15.85;84.21;102508.41;4996610;28;97029;-28
2023/10/05 08:11:21;;;;;;;1.40;0.65;;;;;;;15.81;84.16;102495.91;4995842;28;99778;-28
2023/10/05 08:13:47;;;;;;;2.67;0.73;;;;;;;15.89;83.62;102499.06;4995749;28;97797;-28
2023/10/05 08:16:12;;;;;;;4.68;1.08;;;;;;;15.89;83.51;102497.22;4995541;28;96534;-28
2023/10/05 08:18:38;;;;;;;2.75;0.80;;;;;;;15.89;83.81;102507.25;4996192;28;96819;-28
2023/10/05 08:21:04;;;;;;;1.38;0.65;;;;;;;15.92;84.51;102509.81;4994285;28;98873;-28
2023/10/05 08:23:30;;;;;;;2.03;0.85;;;;;;;15.89;83.91;102520.94;4995628;28;99668;-27
2023/10/05 08:25:57;;;;;;;2.10;0.88;;;;;;;15.93;83.81;102528.88;4996114;28;96622;-28
2023/10/05 08:28:24;;;;;;;2.92;1.05;;;;;;;15.86;83.87;102523.84;4995575;28;96838;-28
2023/10/05 08:31:05;;;;;;;1.95;0.70;;;;;;;15.90;84.32;102533.66;4994221;28;100920;-29
2023/10/05 08:33:33;;;;;;;5.28;0.85;;;;;;;15.93;84.04;102530.72;4994660;28;101244;-28
2023/10/05 08:36:00;;;;;;;2.25;0.90;;;;;;;15.95;84.15;102533.38;4993423;28;96611;-28
2023/10/05 08:38:27;;;;;;;0.73;0.50;;;;;;;15.94;83.92;102532.47;4995834;28;96869;-28
2023/10/05 08:40:53;;;;;;;2.97;0.82;;;;;;;15.98;83.87;102536.81;4993300;28;101006;-28
2023/10/05 08:43:19;;;;;;;6.47;1.33;;;;;;;16.02;84.28;102541.13;4993492;28;100796;-28
2023/10/05 08:45:52;;;;;;;2.45;0.93;;;;;;;16.05;83.79;102542.81;4995536;28;96578;-28
2023/10/05 08:48:44;;;;;;;4.88;0.90;;;;;;;16.02;83.86;102541.13;4995858;28;96668;-29
2023/10/05 08:51:15;;;;;;;2.53;0.80;;;;;;;16.09;83.95;102555.34;4994898;28;98717;-29
2023/10/05 08:53:48;;;;;;;2.53;0.85;;;;;;;16.11;83.88;102558.84;4993855;28;101000;-28
2023/10/05 08:56:15;;;;;;;5.05;1.13;;;;;;;16.09;84.34;102553.47;4995507;28;96929;-28
2023/10/05 08:58:48;;;;;;;2.22;0.90;;;;;;;16.11;83.46;102561.56;4994549;28;96796;-28
2023/10/05 09:01:34;;;;;;;0.68;0.40;;;;;;;16.18;83.57;102573.91;4993822;28;101272;-28
2023/10/05 09:06:57;;;;;;;2.30;0.93;;;;;;;16.19;83.88;102569.38;4993001;28;96531;-28
2023/10/05 09:09:55;;;;;;;3.35;0.90;;;;;;;16.22;83.61;102572.78;4994018;28;96539;-28
2023/10/05 09:12:38;;;;;;;3.53;0.63;;;;;;;16.22;83.79;102575.53;4994477;28;98908;-29
2023/10/05 09:15:10;;;;;;;10.23;1.45;;;;;;;16.19;83.35;102572.09;4993735;28;101314;-28
2023/10/05 09:17:35;;;;;;;3.17;1.38;;;;;;;16.17;83.42;102572.16;4993976;28;96567;-28
2023/10/05 09:20:23;;;;;;;4.15;0.80;;;;;;;16.19;83.05;102578.44;4995203;28;96829;-28
2023/10/05 09:22:53;;;;;;;4.03;1.00;;;;;;;16.21;83.03;102578.31;4993424;28;100950;-28
2023/10/05 09:25:27;;;;;;;3.28;0.85;;;;;;;16.22;83.26;102580.09;4993835;28;101213;-28
2023/10/05 09:28:09;;;;;;;2.47;0.77;;;;;;;16.22;83.26;102585.59;4993767;28;96673;-28
2023/10/05 09:30:49;;;;;;;2.22;0.90;;;;;;;16.22;83.38;102580.97;4995413;28;96559;-28
2023/10/05 09:33:18;;;;;;;5.18;0.90;;;;;;;16.25;83.54;102585.41;4994166;28;100092;-28
2023/10/05 09:35:47;;;;;;;2.63;0.75;;;;;;;16.18;83.33;102578.50;4993222;28;100958;-29
2023/10/05 09:38:19;;;;;;;3.53;0.63;;;;;;;16.24;83.56;102587.25;4993433;28;96646;-28
2023/10/05 09:40:47;;;;;;;2.20;0.70;;;;;;;16.22;83.68;102580.97;4995130;28;96773;-28
2023/10/05 09:43:18;;;;;;;1.08;0.60;;;;;;;16.22;83.53;102589.19;4992764;28;100834;-28
2023/10/05 09:45:45;;;;;;;1.88;1.00;;;;;;;16.25;83.80;102585.41;4994259;28;99814;-29
2023/10/05 09:48:13;;;;;;;2.95;0.70;;;;;;;16.30;83.50;102603.31;4993186;28;96663;-28
2023/10/05 09:50:38;;;;;;;3.08;1.10;;;;;;;16.37;83.49;102595.63;4993930;28;96786;-28
2023/10/05 09:53:06;;;;;;;6.88;1.02;;;;;;;16.37;83.35;102592.00;4994660;28;98017;-28
2023/10/05 09:55:33;;;;;;;3.58;1.02;;;;;;;16.39;83.02;102598.28;4993106;28;101373;-28
2023/10/05 09:58:05;;;;;;;2.05;0.90;;;;;;;16.44;83.21;102601.63;4992642;28;96586;-28
2023/10/05 10:03:06;;;;;;;3.65;0.85;;;;;;;16.44;82.83;102594.28;4992799;28;96530;-28
2023/10/05 10:05:42;;;;;;;3.60;0.63;;;;;;;16.50;83.65;102596.69;4993007;28;101180;-28
2023/10/05 10:08:42;;;;;;;3.22;0.68;;;;;;;16.55;83.43;102588.19;4994644;28;96614;-28
2023/10/05 10:11:18;;;;;;;2.40;0.65;;;;;;;16.53;82.80;102591.03;4994794;28;96625;-28
2023/10/05 10:13:52;;;;;;;4.28;0.95;;;;;;;16.53;83.17;102581.94;4981496;28;101608;-28
2023/10/05 10:16:21;;;;;;;2.05;0.60;;;;;;;16.63;82.92;102602.31;4973328;28;101282;-28
2023/10/05 10:18:52;;;;;;;1.88;0.82;;;;;;;16.67;82.78;102595.69;4973111;28;96793;-28
2023/10/05 10:21:25;;;;;;;2.25;0.82;;;;;;;16.67;82.38;102589.34;4973341;28;96863;-28
2023/10/05 10:24:01;;;;;;;2.20;0.75;;;;;;;16.71;82.82;102577.25;4972795;28;101035;-28
2023/10/05 10:26:27;;;;;;;2.08;0.73;;;;;;;16.80;82.61;102586.75;4974110;28;99729;-29
2023/10/05 10:31:19;;;;;;;4.90;1.00;;;;;;;17.04;81.62;102588.03;4974622;28;96944;-30
2023/10/05 10:33:54;;;;;;;0.98;0.63;;;;;;;17.31;81.71;102590.03;4972773;28;99605;-28
2023/10/05 10:36:53;;;;;;;2.80;0.88;;;;;;;17.44;80.72;102596.50;4972707;28;101526;-29
2023/10/05 10:39:33;;;;;;;4.05;0.73;;;;;;;17.41;79.99;102597.56;4973778;28;96836;-28
2023/10/05 10:42:07;;;;;;;2.22;1.27;;;;;;;17.46;80.19;102596.41;4974527;28;96662;-28
2023/10/05 10:45:02;;;;;;;2.15;0.70;;;;;;;17.53;79.87;102597.78;4973784;28;98435;-28
2023/10/05 10:47:27;;;;;;;2.95;1.25;;;;;;;17.63;79.91;102593.47;4973621;28;98593;-28
2023/10/05 10:50:11;;;;;;;2.00;0.65;;;;;;;17.67;78.81;102603.28;4973720;28;96736;-27
2023/10/05 10:52:38;;;;;;;2.50;0.90;;;;;;;17.59;79.67;102598.28;4972975;28;96691;-28
2023/10/05 10:55:08;;;;;;;2.40;0.85;;;;;;;17.63;79.51;102593.47;4972478;28;101556;-28
2023/10/05 10:57:36;;;;;;;3.58;1.00;;;;;;;17.64;79.66;102595.25;4972525;28;99151;-28
2023/10/05 11:02:47;;;;;;;3.90;0.95;;;;;;;18.05;78.52;102602.72;4977775;28;96497;-28
2023/10/05 11:05:16;;;;;;;1.67;0.82;;;;;;;18.12;76.91;102601.31;4975658;28;101163;-28
2023/10/05 11:07:42;;;;;;;3.22;0.98;;;;;;;18.18;77.34;102600.03;4976015;28;101002;-27
2023/10/05 11:10:21;;;;;;;3.42;0.80;;;;;;;18.15;77.05;102590.16;4985444;28;97475;-28
2023/10/05 11:12:53;;;;;;;2.67;0.80;;;;;;;18.18;75.99;102591.81;4984902;28;96811;-29
2023/10/05 11:15:22;;;;;;;2.97;1.20;;;;;;;18.23;77.11;102596.03;4975244;28;100854;-28
2023/10/05 11:17:55;;;;;;;2.45;0.70;;;;;;;18.22;76.54;102598.84;4975666;28;99360;-28
2023/10/05 11:20:29;;;;;;;2.08;0.60;;;;;;;18.08;75.96;102594.28;4975507;28;96693;-28
2023/10/05 11:23:01;;;;;;;4.47;1.00;;;;;;;17.99;76.36;102594.88;4975740;28;97716;-28
2023/10/05 11:25:35;;;;;;;4.20;0.98;;;;;;;18.03;76.50;102590.97;4975324;28;100926;-28
2023/10/05 11:28:07;;;;;;;4.60;1.10;;;;;;;18.16;76.56;102591.94;4975349;28;100999;-29
2023/10/05 11:30:45;;;;;;;1.80;0.57;;;;;;;18.43;76.37;102597.44;4977048;28;96564;-28
2023/10/05 11:33:17;;;;;;;4.65;1.30;;;;;;;18.75;75.20;102588.88;4977366;28;96673;-28
2023/10/05 11:35:48;;;;;;;3.17;0.77;;;;;;;18.96;73.30;102589.28;4987736;28;100898;-28
2023/10/05 11:38:16;;;;;;;5.80;0.85;;;;;;;19.04;72.69;102584.16;4976477;28;97303;-28
2023/10/05 11:40:49;;;;;;;3.33;0.90;;;;;;;19.29;72.16;102580.56;4976366;28;96594;-28
2023/10/05 11:43:18;;;;;;;2.35;0.60;;;;;;;19.41;72.04;102588.94;4974964;28;96803;-28
2023/10/05 11:46:24;;;;;;;2.47;1.00;;;;;;;19.33;70.46;102589.47;4974803;28;99013;-29
2023/10/05 11:48:54;;;;;;;4.15;0.80;;;;;;;19.26;71.85;102585.41;4974208;28;100961;-29
2023/10/05 11:51:21;;;;;;;3.40;0.85;;;;;;;19.19;71.19;102592.31;4975353;28;96597;-28
2023/10/05 11:53:47;;;;;;;2.90;0.90;;;;;;;19.04;70.73;102586.00;4975302;28;96845;-28
2023/10/05 11:56:17;;;;;;;1.83;0.75;;;;;;;18.99;71.81;102599.19;4976117;28;99782;-30
2023/10/05 11:58:46;;;;;;;4.28;1.00;;;;;;;18.77;71.77;102591.56;4974958;28;99001;-28
2023/10/05 12:01:12;;;;;;;5.55;1.02;;;;;;;18.68;72.62;102588.41;4975169;28;96720;-28
2023/10/05 12:03:44;;;;;;;1.98;0.73;;;;;;;18.64;72.99;102588.75;4976661;28;96864;-29